Portada
METAR-TAF:

METAR-TAF

Aeropuertos :

Base aérea de Thule

Thule, Groenlandia

latitud: 76-32N, longitud: 068-42W, altitud: 77 m

Observación

El informe se hizo hace 49 minutos, a las 18:56 UTC
Viento 14 kt del este-sureste
Temperatura -18°C
Humedad 84%
Presión 1015 hPa
Visibilidad 10 km o más
Cielo despejado

METAR: BGTL 191856Z AUTO 11014KT 9999 CLR M18/M20 A2997 RMK AO2 SLP140 T11841204 TSNO $

Hora: 16:45 (19:45 UTC)

Pronóstico

El informe se hizo hace 26 horas y 45 minutos, a las 17:00 UTC
Pronóstico válido del 18 a las 17 UTC al 19 a las 23 UTC
Viento 9 kt del oeste-noroeste
Visibilidad 10 km o más
Nubes dispersas a una altura de 2500 ft
Evolucionando progresivamente
del 19 a las 00 UTC al 19 a las 01 UTC
Viento 6 kt con dirección variable
Visibilidad: 2109 m
Cielo despejado

TAF: BGTL 181700Z 1817/1923 29009KT 9999 SCT025 QNH2989INS BECMG 1900/1901 VRB06KT 9999 SKC QNH2992INS TXM07/1818Z TNM25/1909Z LAST NO AMDS AFT 1819 NEXT 2109

Observaciones y pronósticos meteorológicos de más de 4000 aeropuertos (mensajes METAR y TAF).

Los puntos amarillos y rojos representan las estaciones disponibles.

Ponga el ratón en el punto deseado para ver el nombre de la estación.

Haga clic para ver las observaciones y los pronósticos meteorológicos.

Para cambiar el mapa : haga clic en los botones verdes con una cruz de color negro para hacer un zoom, en el botón verde con un guión para alejar o en las flechas verdes para mapas adyacentes.


METAR-TAF: